New Orleans, Louisiana
Traffic Map
Current Weather Conditions
New Orleans, Louisiana
Clear
Clear
83°
Feels Like: 93°
Wind Chill: 83° Ceiling: Unl
Heat Index: 93° Visibility: 10mi
Dew Point: 78° Wind: 10mph
Humidity: 85% Direction: 10° (N)
Pressure: 29.89in Gusts: 0mph
Raw Report DataKNEW 310753Z AUTO 01009KT 10SM CLR 28/26 A2989 RMK AO2 SLP115 T02830256
Traffic Incident Summary
Active as of:
Severity:
Category:
InformationThere was an issue retrieving the traffic information for this location. Please try a different location or try again shortly.
Advertisements
Track Severe Weather on mobile